sensor_id;sensor_type;location;lat;lon;timestamp;P1;durP1;ratioP1;P2;durP2;ratioP2
41434;SDS011;27177;22.262;114.192;2022-12-29T00:02:26;39.83;;;25.50;;
41434;SDS011;27177;22.262;114.192;2022-12-29T00:04:53;39.30;;;25.95;;
41434;SDS011;27177;22.262;114.192;2022-12-29T00:07:20;36.55;;;24.80;;
41434;SDS011;27177;22.262;114.192;2022-12-29T00:09:46;39.25;;;25.88;;
41434;SDS011;27177;22.262;114.192;2022-12-29T00:12:13;33.47;;;24.10;;
41434;SDS011;27177;22.262;114.192;2022-12-29T00:14:40;33.90;;;23.75;;
41434;SDS011;27177;22.262;114.192;2022-12-29T00:17:25;37.20;;;25.17;;
41434;SDS011;27177;22.262;114.192;2022-12-29T00:19:51;36.55;;;25.20;;
41434;SDS011;27177;22.262;114.192;2022-12-29T00:22:36;39.13;;;25.55;;
41434;SDS011;27177;22.262;114.192;2022-12-29T00:25:21;39.58;;;26.25;;
41434;SDS011;27177;22.262;114.192;2022-12-29T00:28:08;37.00;;;25.17;;
41434;SDS011;27177;22.262;114.192;2022-12-29T00:30:58;36.03;;;23.70;;
41434;SDS011;27177;22.262;114.192;2022-12-29T00:33:43;36.13;;;24.80;;
41434;SDS011;27177;22.262;114.192;2022-12-29T00:36:32;35.65;;;25.23;;
41434;SDS011;27177;22.262;114.192;2022-12-29T00:39:03;39.25;;;24.98;;
41434;SDS011;27177;22.262;114.192;2022-12-29T00:41:53;35.78;;;25.23;;
41434;SDS011;27177;22.262;114.192;2022-12-29T00:44:38;34.00;;;24.33;;
41434;SDS011;27177;22.262;114.192;2022-12-29T00:47:04;36.40;;;25.10;;
41434;SDS011;27177;22.262;114.192;2022-12-29T00:49:31;36.67;;;24.50;;
41434;SDS011;27177;22.262;114.192;2022-12-29T00:51:59;36.75;;;25.77;;
41434;SDS011;27177;22.262;114.192;2022-12-29T00:54:32;38.65;;;25.40;;
41434;SDS011;27177;22.262;114.192;2022-12-29T00:57:00;35.50;;;26.00;;
41434;SDS011;27177;22.262;114.192;2022-12-29T00:59:27;36.72;;;25.92;;
41434;SDS011;27177;22.262;114.192;2022-12-29T01:01:54;35.40;;;25.13;;
41434;SDS011;27177;22.262;114.192;2022-12-29T01:04:22;33.92;;;24.77;;
41434;SDS011;27177;22.262;114.192;2022-12-29T01:06:50;35.58;;;24.83;;
41434;SDS011;27177;22.262;114.192;2022-12-29T01:09:17;37.67;;;25.20;;
41434;SDS011;27177;22.262;114.192;2022-12-29T01:12:03;36.33;;;25.83;;
41434;SDS011;27177;22.262;114.192;2022-12-29T01:14:31;39.50;;;26.98;;
41434;SDS011;27177;22.262;114.192;2022-12-29T01:16:58;38.53;;;26.73;;
41434;SDS011;27177;22.262;114.192;2022-12-29T01:19:25;37.60;;;26.15;;
41434;SDS011;27177;22.262;114.192;2022-12-29T01:21:52;45.08;;;27.75;;
41434;SDS011;27177;22.262;114.192;2022-12-29T01:24:19;42.50;;;27.45;;
41434;SDS011;27177;22.262;114.192;2022-12-29T01:26:46;51.50;;;27.52;;
41434;SDS011;27177;22.262;114.192;2022-12-29T01:29:15;38.67;;;27.20;;
41434;SDS011;27177;22.262;114.192;2022-12-29T01:31:42;38.15;;;26.90;;
41434;SDS011;27177;22.262;114.192;2022-12-29T01:34:09;37.90;;;27.25;;
41434;SDS011;27177;22.262;114.192;2022-12-29T01:36:36;43.35;;;28.95;;
41434;SDS011;27177;22.262;114.192;2022-12-29T01:39:02;41.53;;;29.58;;
41434;SDS011;27177;22.262;114.192;2022-12-29T01:41:29;42.97;;;28.17;;
41434;SDS011;27177;22.262;114.192;2022-12-29T01:43:57;38.53;;;27.83;;
41434;SDS011;27177;22.262;114.192;2022-12-29T01:46:28;38.85;;;28.58;;
41434;SDS011;27177;22.262;114.192;2022-12-29T01:51:54;44.20;;;28.35;;
41434;SDS011;27177;22.262;114.192;2022-12-29T01:56:57;43.65;;;29.75;;
41434;SDS011;27177;22.262;114.192;2022-12-29T01:59:29;41.07;;;28.10;;
41434;SDS011;27177;22.262;114.192;2022-12-29T02:02:00;44.17;;;29.63;;
41434;SDS011;27177;22.262;114.192;2022-12-29T02:04:29;44.70;;;30.52;;
41434;SDS011;27177;22.262;114.192;2022-12-29T02:07:00;51.67;;;32.08;;
41434;SDS011;27177;22.262;114.192;2022-12-29T02:09:34;42.78;;;30.05;;
41434;SDS011;27177;22.262;114.192;2022-12-29T02:12:01;47.30;;;30.80;;
41434;SDS011;27177;22.262;114.192;2022-12-29T02:14:28;43.47;;;31.50;;
41434;SDS011;27177;22.262;114.192;2022-12-29T02:17:13;42.08;;;29.25;;
41434;SDS011;27177;22.262;114.192;2022-12-29T02:33:32;44.13;;;32.45;;
41434;SDS011;27177;22.262;114.192;2022-12-29T02:44:16;44.80;;;30.08;;
41434;SDS011;27177;22.262;114.192;2022-12-29T02:47:30;43.13;;;30.17;;
41434;SDS011;27177;22.262;114.192;2022-12-29T02:53:11;47.35;;;30.17;;
41434;SDS011;27177;22.262;114.192;2022-12-29T02:55:47;42.63;;;29.73;;
41434;SDS011;27177;22.262;114.192;2022-12-29T02:58:19;40.22;;;28.42;;
41434;SDS011;27177;22.262;114.192;2022-12-29T03:11:38;42.83;;;29.77;;
41434;SDS011;27177;22.262;114.192;2022-12-29T03:18:02;44.03;;;29.75;;
41434;SDS011;27177;22.262;114.192;2022-12-29T03:20:25;46.97;;;30.42;;
41434;SDS011;27177;22.262;114.192;2022-12-29T03:23:02;43.25;;;28.15;;
41434;SDS011;27177;22.262;114.192;2022-12-29T03:25:30;42.20;;;27.98;;
41434;SDS011;27177;22.262;114.192;2022-12-29T03:28:01;44.40;;;28.65;;
41434;SDS011;27177;22.262;114.192;2022-12-29T03:30:34;48.72;;;29.70;;
41434;SDS011;27177;22.262;114.192;2022-12-29T03:33:04;43.85;;;29.60;;
41434;SDS011;27177;22.262;114.192;2022-12-29T03:35:35;36.92;;;27.63;;
41434;SDS011;27177;22.262;114.192;2022-12-29T03:41:20;43.78;;;27.98;;
41434;SDS011;27177;22.262;114.192;2022-12-29T03:43:51;41.45;;;27.20;;
41434;SDS011;27177;22.262;114.192;2022-12-29T03:46:18;36.05;;;27.33;;
41434;SDS011;27177;22.262;114.192;2022-12-29T03:48:44;37.67;;;27.25;;
41434;SDS011;27177;22.262;114.192;2022-12-29T03:51:11;39.25;;;27.95;;
41434;SDS011;27177;22.262;114.192;2022-12-29T03:53:38;39.78;;;26.45;;
41434;SDS011;27177;22.262;114.192;2022-12-29T03:56:05;37.83;;;27.30;;
41434;SDS011;27177;22.262;114.192;2022-12-29T03:58:32;39.97;;;28.90;;
41434;SDS011;27177;22.262;114.192;2022-12-29T04:00:58;38.78;;;26.98;;
41434;SDS011;27177;22.262;114.192;2022-12-29T04:03:25;42.70;;;28.05;;
41434;SDS011;27177;22.262;114.192;2022-12-29T04:05:52;34.63;;;26.02;;
41434;SDS011;27177;22.262;114.192;2022-12-29T04:08:19;35.17;;;25.67;;
41434;SDS011;27177;22.262;114.192;2022-12-29T04:10:45;36.97;;;26.33;;
41434;SDS011;27177;22.262;114.192;2022-12-29T04:13:14;34.13;;;26.15;;
41434;SDS011;27177;22.262;114.192;2022-12-29T04:15:45;35.45;;;24.55;;
41434;SDS011;27177;22.262;114.192;2022-12-29T04:18:12;34.20;;;24.10;;
41434;SDS011;27177;22.262;114.192;2022-12-29T04:20:39;41.25;;;26.77;;
41434;SDS011;27177;22.262;114.192;2022-12-29T04:23:24;38.70;;;26.52;;
41434;SDS011;27177;22.262;114.192;2022-12-29T04:25:51;41.78;;;27.60;;
41434;SDS011;27177;22.262;114.192;2022-12-29T04:28:18;36.85;;;25.90;;
41434;SDS011;27177;22.262;114.192;2022-12-29T04:30:45;36.85;;;24.98;;
41434;SDS011;27177;22.262;114.192;2022-12-29T04:33:12;41.10;;;27.25;;
41434;SDS011;27177;22.262;114.192;2022-12-29T04:35:39;41.85;;;26.77;;
41434;SDS011;27177;22.262;114.192;2022-12-29T04:38:05;36.88;;;26.25;;
41434;SDS011;27177;22.262;114.192;2022-12-29T04:40:32;37.13;;;26.25;;
41434;SDS011;27177;22.262;114.192;2022-12-29T04:42:59;35.85;;;25.33;;
41434;SDS011;27177;22.262;114.192;2022-12-29T04:45:26;38.85;;;27.40;;
41434;SDS011;27177;22.262;114.192;2022-12-29T04:47:52;37.85;;;25.63;;
41434;SDS011;27177;22.262;114.192;2022-12-29T04:50:19;38.65;;;27.08;;
41434;SDS011;27177;22.262;114.192;2022-12-29T04:52:46;45.53;;;29.15;;
41434;SDS011;27177;22.262;114.192;2022-12-29T04:55:13;39.85;;;29.40;;
41434;SDS011;27177;22.262;114.192;2022-12-29T04:57:40;44.75;;;29.60;;
41434;SDS011;27177;22.262;114.192;2022-12-29T05:00:07;45.80;;;31.02;;
41434;SDS011;27177;22.262;114.192;2022-12-29T05:02:35;42.35;;;28.75;;
41434;SDS011;27177;22.262;114.192;2022-12-29T05:05:02;44.80;;;30.02;;
41434;SDS011;27177;22.262;114.192;2022-12-29T05:07:30;38.72;;;28.15;;
41434;SDS011;27177;22.262;114.192;2022-12-29T05:09:59;45.78;;;30.23;;
41434;SDS011;27177;22.262;114.192;2022-12-29T05:12:25;40.70;;;29.25;;
41434;SDS011;27177;22.262;114.192;2022-12-29T05:14:56;41.65;;;27.77;;
41434;SDS011;27177;22.262;114.192;2022-12-29T05:17:23;42.42;;;28.70;;
41434;SDS011;27177;22.262;114.192;2022-12-29T05:19:50;41.75;;;28.73;;
41434;SDS011;27177;22.262;114.192;2022-12-29T05:22:16;43.25;;;30.05;;
41434;SDS011;27177;22.262;114.192;2022-12-29T05:24:43;36.63;;;28.38;;
41434;SDS011;27177;22.262;114.192;2022-12-29T05:27:10;45.35;;;30.77;;
41434;SDS011;27177;22.262;114.192;2022-12-29T05:29:37;46.17;;;30.67;;
41434;SDS011;27177;22.262;114.192;2022-12-29T05:32:03;40.00;;;29.40;;
41434;SDS011;27177;22.262;114.192;2022-12-29T05:34:30;41.03;;;28.40;;
41434;SDS011;27177;22.262;114.192;2022-12-29T05:36:57;43.83;;;30.65;;
41434;SDS011;27177;22.262;114.192;2022-12-29T05:39:24;42.50;;;29.63;;
41434;SDS011;27177;22.262;114.192;2022-12-29T05:41:51;40.30;;;28.05;;
41434;SDS011;27177;22.262;114.192;2022-12-29T05:44:17;39.38;;;28.55;;
41434;SDS011;27177;22.262;114.192;2022-12-29T05:46:44;44.00;;;28.92;;
41434;SDS011;27177;22.262;114.192;2022-12-29T05:49:11;39.05;;;28.58;;
41434;SDS011;27177;22.262;114.192;2022-12-29T05:51:38;40.25;;;27.45;;
41434;SDS011;27177;22.262;114.192;2022-12-29T05:54:05;44.63;;;28.67;;
41434;SDS011;27177;22.262;114.192;2022-12-29T05:56:31;42.08;;;27.92;;
41434;SDS011;27177;22.262;114.192;2022-12-29T05:58:58;36.08;;;27.65;;
41434;SDS011;27177;22.262;114.192;2022-12-29T06:01:25;38.72;;;26.75;;
41434;SDS011;27177;22.262;114.192;2022-12-29T06:03:52;39.22;;;27.25;;
41434;SDS011;27177;22.262;114.192;2022-12-29T06:06:19;44.33;;;30.13;;
41434;SDS011;27177;22.262;114.192;2022-12-29T06:08:46;42.97;;;29.23;;
41434;SDS011;27177;22.262;114.192;2022-12-29T06:11:13;37.63;;;25.83;;
41434;SDS011;27177;22.262;114.192;2022-12-29T06:13:40;38.83;;;28.65;;
41434;SDS011;27177;22.262;114.192;2022-12-29T06:16:07;34.65;;;25.95;;
41434;SDS011;27177;22.262;114.192;2022-12-29T06:18:34;40.55;;;27.48;;
41434;SDS011;27177;22.262;114.192;2022-12-29T06:21:01;36.30;;;26.88;;
41434;SDS011;27177;22.262;114.192;2022-12-29T06:23:29;40.05;;;26.83;;
41434;SDS011;27177;22.262;114.192;2022-12-29T06:25:56;39.35;;;26.60;;
41434;SDS011;27177;22.262;114.192;2022-12-29T06:28:23;39.88;;;26.05;;
41434;SDS011;27177;22.262;114.192;2022-12-29T06:30:50;41.45;;;26.83;;
41434;SDS011;27177;22.262;114.192;2022-12-29T06:33:17;42.13;;;27.90;;
41434;SDS011;27177;22.262;114.192;2022-12-29T06:35:43;34.25;;;24.38;;
41434;SDS011;27177;22.262;114.192;2022-12-29T06:38:11;37.42;;;25.70;;
41434;SDS011;27177;22.262;114.192;2022-12-29T06:40:38;38.42;;;26.65;;
41434;SDS011;27177;22.262;114.192;2022-12-29T06:43:06;37.58;;;26.40;;
41434;SDS011;27177;22.262;114.192;2022-12-29T06:45:33;45.35;;;28.42;;
41434;SDS011;27177;22.262;114.192;2022-12-29T06:48:00;42.50;;;28.33;;
41434;SDS011;27177;22.262;114.192;2022-12-29T06:50:26;34.75;;;26.48;;
41434;SDS011;27177;22.262;114.192;2022-12-29T06:52:53;44.33;;;27.42;;
41434;SDS011;27177;22.262;114.192;2022-12-29T06:55:20;38.03;;;26.63;;
41434;SDS011;27177;22.262;114.192;2022-12-29T06:57:47;37.15;;;25.80;;
41434;SDS011;27177;22.262;114.192;2022-12-29T07:00:14;36.70;;;27.73;;
41434;SDS011;27177;22.262;114.192;2022-12-29T07:02:42;38.88;;;27.92;;
41434;SDS011;27177;22.262;114.192;2022-12-29T07:05:09;36.78;;;28.13;;
41434;SDS011;27177;22.262;114.192;2022-12-29T07:07:36;46.17;;;29.80;;
41434;SDS011;27177;22.262;114.192;2022-12-29T07:10:02;41.08;;;26.63;;
41434;SDS011;27177;22.262;114.192;2022-12-29T07:12:29;40.95;;;27.35;;
41434;SDS011;27177;22.262;114.192;2022-12-29T07:14:56;43.75;;;28.60;;
41434;SDS011;27177;22.262;114.192;2022-12-29T07:17:23;37.85;;;26.98;;
41434;SDS011;27177;22.262;114.192;2022-12-29T07:19:50;40.28;;;28.48;;
41434;SDS011;27177;22.262;114.192;2022-12-29T07:22:16;40.35;;;28.70;;
41434;SDS011;27177;22.262;114.192;2022-12-29T07:24:43;36.22;;;26.85;;
41434;SDS011;27177;22.262;114.192;2022-12-29T07:27:10;39.80;;;27.73;;
41434;SDS011;27177;22.262;114.192;2022-12-29T07:29:37;41.40;;;28.63;;
41434;SDS011;27177;22.262;114.192;2022-12-29T07:32:04;40.17;;;28.73;;
41434;SDS011;27177;22.262;114.192;2022-12-29T07:34:31;41.33;;;28.20;;
41434;SDS011;27177;22.262;114.192;2022-12-29T07:36:57;40.65;;;27.50;;
41434;SDS011;27177;22.262;114.192;2022-12-29T07:39:24;46.65;;;30.38;;
41434;SDS011;27177;22.262;114.192;2022-12-29T07:41:51;43.53;;;29.75;;
41434;SDS011;27177;22.262;114.192;2022-12-29T07:44:18;44.10;;;28.60;;
41434;SDS011;27177;22.262;114.192;2022-12-29T07:46:44;36.78;;;26.20;;
41434;SDS011;27177;22.262;114.192;2022-12-29T07:49:11;42.10;;;29.30;;
41434;SDS011;27177;22.262;114.192;2022-12-29T07:51:38;43.47;;;28.75;;
41434;SDS011;27177;22.262;114.192;2022-12-29T07:54:05;42.72;;;28.20;;
41434;SDS011;27177;22.262;114.192;2022-12-29T07:56:32;41.22;;;29.85;;
41434;SDS011;27177;22.262;114.192;2022-12-29T07:58:58;38.67;;;27.98;;
41434;SDS011;27177;22.262;114.192;2022-12-29T08:01:25;37.78;;;27.15;;
41434;SDS011;27177;22.262;114.192;2022-12-29T08:03:52;42.45;;;28.80;;
41434;SDS011;27177;22.262;114.192;2022-12-29T08:06:19;44.58;;;27.77;;
41434;SDS011;27177;22.262;114.192;2022-12-29T08:08:45;39.80;;;28.25;;
41434;SDS011;27177;22.262;114.192;2022-12-29T08:11:12;44.25;;;26.67;;
41434;SDS011;27177;22.262;114.192;2022-12-29T08:13:39;37.72;;;26.80;;
41434;SDS011;27177;22.262;114.192;2022-12-29T08:16:06;34.83;;;26.50;;
41434;SDS011;27177;22.262;114.192;2022-12-29T08:18:32;31.90;;;23.60;;
41434;SDS011;27177;22.262;114.192;2022-12-29T08:21:03;37.80;;;25.77;;
41434;SDS011;27177;22.262;114.192;2022-12-29T08:23:31;39.78;;;27.58;;
41434;SDS011;27177;22.262;114.192;2022-12-29T08:25:58;37.47;;;26.58;;
41434;SDS011;27177;22.262;114.192;2022-12-29T08:28:26;43.35;;;27.40;;
41434;SDS011;27177;22.262;114.192;2022-12-29T08:30:56;37.58;;;25.40;;
41434;SDS011;27177;22.262;114.192;2022-12-29T08:33:24;38.60;;;27.05;;
41434;SDS011;27177;22.262;114.192;2022-12-29T08:35:51;42.28;;;26.50;;
41434;SDS011;27177;22.262;114.192;2022-12-29T08:38:18;42.80;;;27.33;;
41434;SDS011;27177;22.262;114.192;2022-12-29T08:40:45;38.03;;;27.33;;
41434;SDS011;27177;22.262;114.192;2022-12-29T08:43:11;35.00;;;26.02;;
41434;SDS011;27177;22.262;114.192;2022-12-29T08:45:38;39.90;;;28.95;;
41434;SDS011;27177;22.262;114.192;2022-12-29T08:48:05;38.22;;;26.05;;
41434;SDS011;27177;22.262;114.192;2022-12-29T08:50:32;41.40;;;29.23;;
41434;SDS011;27177;22.262;114.192;2022-12-29T08:52:58;40.85;;;26.27;;
41434;SDS011;27177;22.262;114.192;2022-12-29T08:55:25;43.17;;;28.73;;
41434;SDS011;27177;22.262;114.192;2022-12-29T08:57:52;42.28;;;29.63;;
41434;SDS011;27177;22.262;114.192;2022-12-29T09:00:19;37.65;;;26.10;;
41434;SDS011;27177;22.262;114.192;2022-12-29T09:02:46;42.67;;;27.85;;
41434;SDS011;27177;22.262;114.192;2022-12-29T09:05:13;40.47;;;27.92;;
41434;SDS011;27177;22.262;114.192;2022-12-29T09:07:39;47.85;;;29.10;;
41434;SDS011;27177;22.262;114.192;2022-12-29T09:10:06;38.92;;;27.48;;
41434;SDS011;27177;22.262;114.192;2022-12-29T09:12:33;40.35;;;28.23;;
41434;SDS011;27177;22.262;114.192;2022-12-29T09:15:00;40.03;;;27.70;;
41434;SDS011;27177;22.262;114.192;2022-12-29T09:17:27;42.30;;;27.83;;
41434;SDS011;27177;22.262;114.192;2022-12-29T09:20:09;41.40;;;27.85;;
41434;SDS011;27177;22.262;114.192;2022-12-29T09:22:37;41.72;;;26.85;;
41434;SDS011;27177;22.262;114.192;2022-12-29T09:25:04;38.83;;;27.70;;
41434;SDS011;27177;22.262;114.192;2022-12-29T09:27:31;40.63;;;27.38;;
41434;SDS011;27177;22.262;114.192;2022-12-29T09:29:58;41.65;;;28.58;;
41434;SDS011;27177;22.262;114.192;2022-12-29T09:32:24;40.85;;;27.63;;
41434;SDS011;27177;22.262;114.192;2022-12-29T09:34:51;44.92;;;30.58;;
41434;SDS011;27177;22.262;114.192;2022-12-29T09:37:18;41.97;;;29.05;;
41434;SDS011;27177;22.262;114.192;2022-12-29T09:39:45;43.20;;;28.58;;
41434;SDS011;27177;22.262;114.192;2022-12-29T09:45:16;43.97;;;28.77;;
41434;SDS011;27177;22.262;114.192;2022-12-29T09:47:54;52.90;;;32.92;;
41434;SDS011;27177;22.262;114.192;2022-12-29T09:50:27;44.83;;;30.95;;
41434;SDS011;27177;22.262;114.192;2022-12-29T09:55:53;45.20;;;30.10;;
41434;SDS011;27177;22.262;114.192;2022-12-29T09:58:26;52.55;;;35.72;;
41434;SDS011;27177;22.262;114.192;2022-12-29T10:01:26;58.20;;;35.72;;
41434;SDS011;27177;22.262;114.192;2022-12-29T10:03:59;48.63;;;33.58;;
41434;SDS011;27177;22.262;114.192;2022-12-29T10:24:50;51.45;;;33.35;;
41434;SDS011;27177;22.262;114.192;2022-12-29T10:27:21;46.88;;;32.50;;
41434;SDS011;27177;22.262;114.192;2022-12-29T10:29:52;51.00;;;33.92;;
41434;SDS011;27177;22.262;114.192;2022-12-29T10:34:55;46.95;;;31.50;;
41434;SDS011;27177;22.262;114.192;2022-12-29T10:42:50;60.65;;;34.70;;
41434;SDS011;27177;22.262;114.192;2022-12-29T10:45:18;51.80;;;33.28;;
41434;SDS011;27177;22.262;114.192;2022-12-29T10:47:52;51.95;;;35.45;;
41434;SDS011;27177;22.262;114.192;2022-12-29T10:50:30;54.13;;;32.97;;
41434;SDS011;27177;22.262;114.192;2022-12-29T10:52:58;57.50;;;35.95;;
41434;SDS011;27177;22.262;114.192;2022-12-29T10:55:30;46.00;;;31.00;;
41434;SDS011;27177;22.262;114.192;2022-12-29T10:58:04;54.22;;;35.85;;
41434;SDS011;27177;22.262;114.192;2022-12-29T11:00:32;57.90;;;36.33;;
41434;SDS011;27177;22.262;114.192;2022-12-29T11:08:35;55.38;;;35.53;;
41434;SDS011;27177;22.262;114.192;2022-12-29T11:11:06;50.42;;;33.67;;
41434;SDS011;27177;22.262;114.192;2022-12-29T11:13:35;48.28;;;31.27;;
41434;SDS011;27177;22.262;114.192;2022-12-29T11:16:13;48.03;;;31.55;;
41434;SDS011;27177;22.262;114.192;2022-12-29T11:18:40;46.55;;;32.75;;
41434;SDS011;27177;22.262;114.192;2022-12-29T11:21:30;46.08;;;31.08;;
41434;SDS011;27177;22.262;114.192;2022-12-29T11:23:59;46.78;;;32.97;;
41434;SDS011;27177;22.262;114.192;2022-12-29T11:31:50;49.75;;;32.72;;
41434;SDS011;27177;22.262;114.192;2022-12-29T11:34:23;54.92;;;35.03;;
41434;SDS011;27177;22.262;114.192;2022-12-29T11:37:03;58.90;;;36.33;;
41434;SDS011;27177;22.262;114.192;2022-12-29T11:42:15;53.08;;;33.80;;
41434;SDS011;27177;22.262;114.192;2022-12-29T11:44:45;53.08;;;34.72;;
41434;SDS011;27177;22.262;114.192;2022-12-29T11:47:35;44.05;;;32.47;;
41434;SDS011;27177;22.262;114.192;2022-12-29T11:50:03;47.65;;;33.10;;
41434;SDS011;27177;22.262;114.192;2022-12-29T11:52:39;48.08;;;33.42;;
41434;SDS011;27177;22.262;114.192;2022-12-29T11:55:09;47.17;;;30.65;;
41434;SDS011;27177;22.262;114.192;2022-12-29T11:57:47;49.03;;;31.42;;
41434;SDS011;27177;22.262;114.192;2022-12-29T12:02:50;50.70;;;32.53;;
41434;SDS011;27177;22.262;114.192;2022-12-29T12:05:46;54.72;;;34.63;;
41434;SDS011;27177;22.262;114.192;2022-12-29T12:08:22;50.38;;;34.40;;
41434;SDS011;27177;22.262;114.192;2022-12-29T12:11:10;51.95;;;33.40;;
41434;SDS011;27177;22.262;114.192;2022-12-29T12:16:36;57.08;;;35.35;;
41434;SDS011;27177;22.262;114.192;2022-12-29T12:27:57;49.42;;;33.50;;
41434;SDS011;27177;22.262;114.192;2022-12-29T12:30:34;49.85;;;32.90;;
41434;SDS011;27177;22.262;114.192;2022-12-29T13:02:11;52.97;;;34.90;;
41434;SDS011;27177;22.262;114.192;2022-12-29T13:08:01;53.70;;;36.28;;
41434;SDS011;27177;22.262;114.192;2022-12-29T13:19:19;53.22;;;35.25;;
41434;SDS011;27177;22.262;114.192;2022-12-29T13:27:37;53.30;;;35.38;;
41434;SDS011;27177;22.262;114.192;2022-12-29T13:30:19;50.97;;;34.38;;
41434;SDS011;27177;22.262;114.192;2022-12-29T13:32:59;52.33;;;35.10;;
41434;SDS011;27177;22.262;114.192;2022-12-29T13:41:20;54.65;;;35.88;;
41434;SDS011;27177;22.262;114.192;2022-12-29T13:44:04;48.88;;;34.65;;
41434;SDS011;27177;22.262;114.192;2022-12-29T13:46:39;53.10;;;36.58;;
41434;SDS011;27177;22.262;114.192;2022-12-29T13:51:53;60.33;;;36.80;;
41434;SDS011;27177;22.262;114.192;2022-12-29T13:54:43;52.63;;;33.47;;
41434;SDS011;27177;22.262;114.192;2022-12-29T13:58:04;56.67;;;36.53;;
41434;SDS011;27177;22.262;114.192;2022-12-29T14:00:18;54.55;;;35.55;;
41434;SDS011;27177;22.262;114.192;2022-12-29T14:03:24;55.88;;;35.20;;
41434;SDS011;27177;22.262;114.192;2022-12-29T14:06:12;55.92;;;36.15;;
41434;SDS011;27177;22.262;114.192;2022-12-29T14:08:53;52.72;;;35.75;;
41434;SDS011;27177;22.262;114.192;2022-12-29T14:11:23;57.20;;;36.78;;
41434;SDS011;27177;22.262;114.192;2022-12-29T14:14:22;54.33;;;35.95;;
41434;SDS011;27177;22.262;114.192;2022-12-29T14:16:53;54.75;;;35.88;;
41434;SDS011;27177;22.262;114.192;2022-12-29T14:19:30;54.83;;;36.58;;
41434;SDS011;27177;22.262;114.192;2022-12-29T14:21:59;55.13;;;36.92;;
41434;SDS011;27177;22.262;114.192;2022-12-29T14:34:50;57.08;;;34.97;;
41434;SDS011;27177;22.262;114.192;2022-12-29T14:37:30;52.10;;;36.83;;
41434;SDS011;27177;22.262;114.192;2022-12-29T14:42:48;50.00;;;35.15;;
41434;SDS011;27177;22.262;114.192;2022-12-29T14:47:45;52.75;;;35.08;;
41434;SDS011;27177;22.262;114.192;2022-12-29T14:52:56;56.60;;;35.85;;
41434;SDS011;27177;22.262;114.192;2022-12-29T14:55:30;54.80;;;35.03;;
41434;SDS011;27177;22.262;114.192;2022-12-29T15:04:13;55.88;;;35.97;;
41434;SDS011;27177;22.262;114.192;2022-12-29T15:06:43;60.60;;;35.80;;
41434;SDS011;27177;22.262;114.192;2022-12-29T15:11:51;54.00;;;35.28;;
41434;SDS011;27177;22.262;114.192;2022-12-29T15:14:36;57.90;;;34.40;;
41434;SDS011;27177;22.262;114.192;2022-12-29T15:17:10;55.17;;;36.47;;
41434;SDS011;27177;22.262;114.192;2022-12-29T15:19:49;58.05;;;35.75;;
41434;SDS011;27177;22.262;114.192;2022-12-29T15:22:16;54.05;;;34.45;;
41434;SDS011;27177;22.262;114.192;2022-12-29T15:24:43;54.45;;;34.97;;
41434;SDS011;27177;22.262;114.192;2022-12-29T15:27:15;54.10;;;34.53;;
41434;SDS011;27177;22.262;114.192;2022-12-29T15:29:45;54.78;;;35.15;;
41434;SDS011;27177;22.262;114.192;2022-12-29T15:32:16;55.45;;;36.50;;
41434;SDS011;27177;22.262;114.192;2022-12-29T15:34:47;57.28;;;37.05;;
41434;SDS011;27177;22.262;114.192;2022-12-29T15:37:23;54.97;;;36.33;;
41434;SDS011;27177;22.262;114.192;2022-12-29T15:39:54;62.35;;;37.83;;
41434;SDS011;27177;22.262;114.192;2022-12-29T15:42:46;55.92;;;36.22;;
41434;SDS011;27177;22.262;114.192;2022-12-29T15:45:18;58.90;;;36.95;;
41434;SDS011;27177;22.262;114.192;2022-12-29T15:47:45;56.17;;;36.50;;
41434;SDS011;27177;22.262;114.192;2022-12-29T15:53:02;57.83;;;39.03;;
41434;SDS011;27177;22.262;114.192;2022-12-29T15:55:42;58.50;;;37.47;;
41434;SDS011;27177;22.262;114.192;2022-12-29T15:58:31;61.53;;;38.28;;
41434;SDS011;27177;22.262;114.192;2022-12-29T16:01:16;57.72;;;37.63;;
41434;SDS011;27177;22.262;114.192;2022-12-29T16:03:45;60.53;;;38.53;;
41434;SDS011;27177;22.262;114.192;2022-12-29T16:06:27;59.65;;;36.95;;
41434;SDS011;27177;22.262;114.192;2022-12-29T16:11:54;55.92;;;36.00;;
41434;SDS011;27177;22.262;114.192;2022-12-29T16:14:33;62.97;;;39.03;;
41434;SDS011;27177;22.262;114.192;2022-12-29T16:17:09;64.75;;;37.30;;
41434;SDS011;27177;22.262;114.192;2022-12-29T16:20:13;59.85;;;37.00;;
41434;SDS011;27177;22.262;114.192;2022-12-29T16:22:42;62.40;;;38.70;;
41434;SDS011;27177;22.262;114.192;2022-12-29T16:27:59;65.45;;;38.88;;
41434;SDS011;27177;22.262;114.192;2022-12-29T16:30:29;58.03;;;37.00;;
41434;SDS011;27177;22.262;114.192;2022-12-29T16:32:59;57.03;;;36.20;;
41434;SDS011;27177;22.262;114.192;2022-12-29T16:35:28;59.45;;;36.72;;
41434;SDS011;27177;22.262;114.192;2022-12-29T16:38:14;62.80;;;39.80;;
41434;SDS011;27177;22.262;114.192;2022-12-29T16:40:53;54.85;;;36.55;;
41434;SDS011;27177;22.262;114.192;2022-12-29T16:43:21;63.47;;;36.75;;
41434;SDS011;27177;22.262;114.192;2022-12-29T16:51:11;64.97;;;39.85;;
41434;SDS011;27177;22.262;114.192;2022-12-29T16:53:41;59.92;;;37.63;;
41434;SDS011;27177;22.262;114.192;2022-12-29T16:56:20;65.03;;;39.08;;
41434;SDS011;27177;22.262;114.192;2022-12-29T16:58:57;64.43;;;40.92;;
41434;SDS011;27177;22.262;114.192;2022-12-29T17:01:34;62.55;;;39.67;;
41434;SDS011;27177;22.262;114.192;2022-12-29T17:04:05;65.77;;;39.43;;
41434;SDS011;27177;22.262;114.192;2022-12-29T17:06:34;67.32;;;39.78;;
41434;SDS011;27177;22.262;114.192;2022-12-29T17:09:01;60.85;;;38.05;;
41434;SDS011;27177;22.262;114.192;2022-12-29T17:11:32;65.93;;;40.17;;
41434;SDS011;27177;22.262;114.192;2022-12-29T17:16:53;68.18;;;40.20;;
41434;SDS011;27177;22.262;114.192;2022-12-29T17:19:24;64.13;;;39.95;;
41434;SDS011;27177;22.262;114.192;2022-12-29T17:22:01;66.45;;;40.90;;
41434;SDS011;27177;22.262;114.192;2022-12-29T17:24:29;68.45;;;40.50;;
41434;SDS011;27177;22.262;114.192;2022-12-29T17:26:56;64.55;;;39.58;;
41434;SDS011;27177;22.262;114.192;2022-12-29T17:29:38;65.78;;;39.60;;
41434;SDS011;27177;22.262;114.192;2022-12-29T17:32:09;67.35;;;38.70;;
41434;SDS011;27177;22.262;114.192;2022-12-29T17:34:39;61.47;;;37.92;;
41434;SDS011;27177;22.262;114.192;2022-12-29T17:37:27;61.20;;;37.90;;
41434;SDS011;27177;22.262;114.192;2022-12-29T17:40:03;60.72;;;38.60;;
41434;SDS011;27177;22.262;114.192;2022-12-29T17:42:31;68.18;;;41.50;;
41434;SDS011;27177;22.262;114.192;2022-12-29T17:45:03;65.28;;;40.83;;
41434;SDS011;27177;22.262;114.192;2022-12-29T17:47:30;65.85;;;39.25;;